Kentucky Observed Data For Previous 48 Hours

Caption
Day and Hour Reservoir Elevation (behind dam)* Tailwater Elevation (below dam)* Average Hourly Discharge*
11/23/2017 1 AM CST 354.49 304.84 46,729
11/23/2017 2 AM CST 354.50 305.01 46,598
11/23/2017 3 AM CST 354.47 304.78 46,637
11/23/2017 4 AM CST 354.46 304.81 46,573
11/23/2017 5 AM CST 354.49 304.77 46,483
11/23/2017 6 AM CST 354.49 304.71 46,368
11/23/2017 7 AM CST 354.48 304.76 46,458
11/23/2017 8 AM CST 354.45 304.68 46,364
11/23/2017 9 AM CST 354.48 304.72 46,333
11/23/2017 10 AM CST 354.49 304.82 46,252
11/23/2017 11 AM CST 354.50 304.96 46,197
11/23/2017 12 PM CST 354.52 304.96 46,054
11/23/2017 1 PM CST 354.57 304.34 33,703
11/23/2017 2 PM CST 354.59 304.33 28,834
11/23/2017 3 PM CST 354.59 304.39 28,816
11/23/2017 4 PM CST 354.58 304.39 28,870
11/23/2017 5 PM CST 354.58 304.36 28,878
11/23/2017 6 PM CST 354.59 304.37 28,834
11/23/2017 7 PM CST 354.59 304.45 28,902
11/23/2017 8 PM CST 354.59 304.58 28,951
11/23/2017 9 PM CST 354.59 304.66 29,084
11/23/2017 10 PM CST 354.63 304.72 29,147
11/23/2017 11 PM CST 354.62 304.74 29,133
11/24/2017 12 AM CST 354.63 304.82 29,135
11/24/2017 1 AM CST 354.65 304.88 29,114
11/24/2017 2 AM CST 354.66 304.86 29,147
11/24/2017 3 AM CST 354.72 304.97 29,102
11/24/2017 4 AM CST 354.71 304.96 29,139
11/24/2017 5 AM CST 354.73 304.98 29,214
11/24/2017 6 AM CST 354.75 305.06 29,246
11/24/2017 7 AM CST 354.78 305.03 29,273
11/24/2017 8 AM CST 354.79 305.14 29,166
11/24/2017 9 AM CST 354.81 305.18 29,164
11/24/2017 10 AM CST 354.83 305.23 29,184
11/24/2017 11 AM CST 354.85 305.26 29,137
11/24/2017 12 PM CST 354.87 305.38 29,223
11/24/2017 1 PM CST 354.88 305.53 29,121
11/24/2017 2 PM CST 354.89 305.62 29,059
11/24/2017 3 PM CST 354.88 305.73 28,965
11/24/2017 4 PM CST 354.89 305.66 28,898
11/24/2017 5 PM CST 354.88 305.75 28,997
11/24/2017 6 PM CST 354.88 305.79 29,085
11/24/2017 7 PM CST 354.86 305.80 29,024
11/24/2017 8 PM CST 354.86 305.88 28,900
11/24/2017 9 PM CST 354.89 305.88 28,861
11/24/2017 10 PM CST 354.91 305.87 28,797
11/24/2017 11 PM CST 354.92 305.96 28,757

Elevations are in feet above sea level. Discharges are in cubic feet per second and are reported at the end of the hour.